sensor_id;sensor_type;location;lat;lon;timestamp;P1;durP1;ratioP1;P2;durP2;ratioP2
57249;SDS011;43102;52.014;-0.680;2023-03-19T00:00:00;6.40;;;5.10;;
57249;SDS011;43102;52.014;-0.680;2023-03-19T00:01:04;6.40;;;5.10;;
57249;SDS011;43102;52.014;-0.680;2023-03-19T00:02:10;6.40;;;5.10;;
57249;SDS011;43102;52.014;-0.680;2023-03-19T00:03:01;6.40;;;5.10;;
57249;SDS011;43102;52.014;-0.680;2023-03-19T00:04:00;6.40;;;5.10;;
57249;SDS011;43102;52.014;-0.680;2023-03-19T00:05:01;6.40;;;5.10;;
57249;SDS011;43102;52.014;-0.680;2023-03-19T00:06:01;6.40;;;5.10;;
57249;SDS011;43102;52.014;-0.680;2023-03-19T00:07:00;6.40;;;5.10;;
57249;SDS011;43102;52.014;-0.680;2023-03-19T00:08:00;6.40;;;5.10;;
57249;SDS011;43102;52.014;-0.680;2023-03-19T00:09:00;6.40;;;5.10;;
57249;SDS011;43102;52.014;-0.680;2023-03-19T00:10:00;6.40;;;5.10;;
57249;SDS011;43102;52.014;-0.680;2023-03-19T00:11:10;6.40;;;5.10;;
57249;SDS011;43102;52.014;-0.680;2023-03-19T00:12:00;6.40;;;5.10;;
57249;SDS011;43102;52.014;-0.680;2023-03-19T00:13:00;6.40;;;5.10;;
57249;SDS011;43102;52.014;-0.680;2023-03-19T00:14:00;6.40;;;5.10;;
57249;SDS011;43102;52.014;-0.680;2023-03-19T00:15:01;6.40;;;5.10;;
57249;SDS011;43102;52.014;-0.680;2023-03-19T00:16:00;6.40;;;5.10;;
57249;SDS011;43102;52.014;-0.680;2023-03-19T00:17:00;6.40;;;5.10;;
57249;SDS011;43102;52.014;-0.680;2023-03-19T00:18:00;6.40;;;5.10;;
57249;SDS011;43102;52.014;-0.680;2023-03-19T00:19:01;6.40;;;5.10;;
57249;SDS011;43102;52.014;-0.680;2023-03-19T00:20:00;6.40;;;5.10;;
57249;SDS011;43102;52.014;-0.680;2023-03-19T00:21:01;6.40;;;5.10;;
57249;SDS011;43102;52.014;-0.680;2023-03-19T00:22:00;6.40;;;5.10;;
57249;SDS011;43102;52.014;-0.680;2023-03-19T00:23:00;6.40;;;5.10;;
57249;SDS011;43102;52.014;-0.680;2023-03-19T00:24:01;6.40;;;5.10;;
57249;SDS011;43102;52.014;-0.680;2023-03-19T00:25:01;6.40;;;5.10;;
57249;SDS011;43102;52.014;-0.680;2023-03-19T00:26:01;6.40;;;5.10;;
57249;SDS011;43102;52.014;-0.680;2023-03-19T00:27:02;4.70;;;2.60;;
57249;SDS011;43102;52.014;-0.680;2023-03-19T00:28:00;4.70;;;2.60;;
57249;SDS011;43102;52.014;-0.680;2023-03-19T00:29:01;4.70;;;2.60;;
57249;SDS011;43102;52.014;-0.680;2023-03-19T00:30:01;4.70;;;2.60;;
57249;SDS011;43102;52.014;-0.680;2023-03-19T00:31:12;4.70;;;2.60;;
57249;SDS011;43102;52.014;-0.680;2023-03-19T00:32:01;4.70;;;2.60;;
57249;SDS011;43102;52.014;-0.680;2023-03-19T00:33:01;4.70;;;2.60;;
57249;SDS011;43102;52.014;-0.680;2023-03-19T00:34:01;4.70;;;2.60;;
57249;SDS011;43102;52.014;-0.680;2023-03-19T00:35:00;4.70;;;2.60;;
57249;SDS011;43102;52.014;-0.680;2023-03-19T00:36:00;4.70;;;2.60;;
57249;SDS011;43102;52.014;-0.680;2023-03-19T00:37:00;4.70;;;2.60;;
57249;SDS011;43102;52.014;-0.680;2023-03-19T00:38:00;4.70;;;2.60;;
57249;SDS011;43102;52.014;-0.680;2023-03-19T00:39:00;4.70;;;2.60;;
57249;SDS011;43102;52.014;-0.680;2023-03-19T00:40:01;4.70;;;2.60;;
57249;SDS011;43102;52.014;-0.680;2023-03-19T00:41:01;4.70;;;2.60;;
57249;SDS011;43102;52.014;-0.680;2023-03-19T00:42:01;4.70;;;2.60;;
57249;SDS011;43102;52.014;-0.680;2023-03-19T00:43:00;4.70;;;2.60;;
57249;SDS011;43102;52.014;-0.680;2023-03-19T00:44:00;4.70;;;2.60;;
57249;SDS011;43102;52.014;-0.680;2023-03-19T00:45:00;4.70;;;2.60;;
57249;SDS011;43102;52.014;-0.680;2023-03-19T00:46:01;4.70;;;2.60;;
57249;SDS011;43102;52.014;-0.680;2023-03-19T00:47:00;4.70;;;2.60;;
57249;SDS011;43102;52.014;-0.680;2023-03-19T00:48:00;4.70;;;2.60;;
57249;SDS011;43102;52.014;-0.680;2023-03-19T00:49:00;4.70;;;2.60;;
57249;SDS011;43102;52.014;-0.680;2023-03-19T00:50:01;4.70;;;2.60;;
57249;SDS011;43102;52.014;-0.680;2023-03-19T00:51:03;4.70;;;2.60;;
57249;SDS011;43102;52.014;-0.680;2023-03-19T00:52:00;4.70;;;2.60;;
57249;SDS011;43102;52.014;-0.680;2023-03-19T00:53:00;4.70;;;2.60;;
57249;SDS011;43102;52.014;-0.680;2023-03-19T00:54:01;4.70;;;2.60;;
57249;SDS011;43102;52.014;-0.680;2023-03-19T00:55:00;4.70;;;2.60;;
57249;SDS011;43102;52.014;-0.680;2023-03-19T00:56:00;4.70;;;2.60;;
57249;SDS011;43102;52.014;-0.680;2023-03-19T00:57:00;6.10;;;2.30;;
57249;SDS011;43102;52.014;-0.680;2023-03-19T00:58:00;6.10;;;2.30;;
57249;SDS011;43102;52.014;-0.680;2023-03-19T00:59:00;6.10;;;2.30;;
57249;SDS011;43102;52.014;-0.680;2023-03-19T01:00:00;6.10;;;2.30;;
57249;SDS011;43102;52.014;-0.680;2023-03-19T01:01:01;6.10;;;2.30;;
57249;SDS011;43102;52.014;-0.680;2023-03-19T01:02:00;6.10;;;2.30;;
57249;SDS011;43102;52.014;-0.680;2023-03-19T01:03:01;6.10;;;2.30;;
57249;SDS011;43102;52.014;-0.680;2023-03-19T01:04:00;6.10;;;2.30;;
57249;SDS011;43102;52.014;-0.680;2023-03-19T01:05:01;6.10;;;2.30;;
57249;SDS011;43102;52.014;-0.680;2023-03-19T01:06:00;6.10;;;2.30;;
57249;SDS011;43102;52.014;-0.680;2023-03-19T01:07:00;6.10;;;2.30;;
57249;SDS011;43102;52.014;-0.680;2023-03-19T01:08:01;6.10;;;2.30;;
57249;SDS011;43102;52.014;-0.680;2023-03-19T01:09:00;6.10;;;2.30;;
57249;SDS011;43102;52.014;-0.680;2023-03-19T01:10:00;6.10;;;2.30;;
57249;SDS011;43102;52.014;-0.680;2023-03-19T01:11:10;6.10;;;2.30;;
57249;SDS011;43102;52.014;-0.680;2023-03-19T01:12:03;6.10;;;2.30;;
57249;SDS011;43102;52.014;-0.680;2023-03-19T01:13:01;6.10;;;2.30;;
57249;SDS011;43102;52.014;-0.680;2023-03-19T01:14:01;6.10;;;2.30;;
57249;SDS011;43102;52.014;-0.680;2023-03-19T01:15:01;6.10;;;2.30;;
57249;SDS011;43102;52.014;-0.680;2023-03-19T01:16:00;6.10;;;2.30;;
57249;SDS011;43102;52.014;-0.680;2023-03-19T01:17:00;6.10;;;2.30;;
57249;SDS011;43102;52.014;-0.680;2023-03-19T01:18:01;6.10;;;2.30;;
57249;SDS011;43102;52.014;-0.680;2023-03-19T01:19:01;6.10;;;2.30;;
57249;SDS011;43102;52.014;-0.680;2023-03-19T01:20:00;6.10;;;2.30;;
57249;SDS011;43102;52.014;-0.680;2023-03-19T01:21:00;6.10;;;2.30;;
57249;SDS011;43102;52.014;-0.680;2023-03-19T01:22:01;6.10;;;2.30;;
57249;SDS011;43102;52.014;-0.680;2023-03-19T01:23:01;6.10;;;2.30;;
57249;SDS011;43102;52.014;-0.680;2023-03-19T01:24:01;6.10;;;2.30;;
57249;SDS011;43102;52.014;-0.680;2023-03-19T01:25:01;6.10;;;2.30;;
57249;SDS011;43102;52.014;-0.680;2023-03-19T01:26:00;6.10;;;2.30;;
57249;SDS011;43102;52.014;-0.680;2023-03-19T01:27:00;7.40;;;2.80;;
57249;SDS011;43102;52.014;-0.680;2023-03-19T01:28:01;7.40;;;2.80;;
57249;SDS011;43102;52.014;-0.680;2023-03-19T01:29:00;7.40;;;2.80;;
57249;SDS011;43102;52.014;-0.680;2023-03-19T01:30:01;7.40;;;2.80;;
57249;SDS011;43102;52.014;-0.680;2023-03-19T01:31:04;7.40;;;2.80;;
57249;SDS011;43102;52.014;-0.680;2023-03-19T01:32:00;7.40;;;2.80;;
57249;SDS011;43102;52.014;-0.680;2023-03-19T01:33:00;7.40;;;2.80;;
57249;SDS011;43102;52.014;-0.680;2023-03-19T01:34:01;7.40;;;2.80;;
57249;SDS011;43102;52.014;-0.680;2023-03-19T01:35:00;7.40;;;2.80;;
57249;SDS011;43102;52.014;-0.680;2023-03-19T01:36:03;7.40;;;2.80;;
57249;SDS011;43102;52.014;-0.680;2023-03-19T01:37:00;7.40;;;2.80;;
57249;SDS011;43102;52.014;-0.680;2023-03-19T01:38:00;7.40;;;2.80;;
57249;SDS011;43102;52.014;-0.680;2023-03-19T01:39:00;7.40;;;2.80;;
57249;SDS011;43102;52.014;-0.680;2023-03-19T01:40:00;7.40;;;2.80;;
57249;SDS011;43102;52.014;-0.680;2023-03-19T01:41:01;7.40;;;2.80;;
57249;SDS011;43102;52.014;-0.680;2023-03-19T01:42:02;7.40;;;2.80;;
57249;SDS011;43102;52.014;-0.680;2023-03-19T01:44:00;7.40;;;2.80;;
57249;SDS011;43102;52.014;-0.680;2023-03-19T01:45:01;7.40;;;2.80;;
57249;SDS011;43102;52.014;-0.680;2023-03-19T01:46:14;7.40;;;2.80;;
57249;SDS011;43102;52.014;-0.680;2023-03-19T01:47:04;7.40;;;2.80;;
57249;SDS011;43102;52.014;-0.680;2023-03-19T01:48:01;7.40;;;2.80;;
57249;SDS011;43102;52.014;-0.680;2023-03-19T01:49:04;7.40;;;2.80;;
57249;SDS011;43102;52.014;-0.680;2023-03-19T01:50:00;7.40;;;2.80;;
57249;SDS011;43102;52.014;-0.680;2023-03-19T01:51:01;7.40;;;2.80;;
57249;SDS011;43102;52.014;-0.680;2023-03-19T01:52:02;7.40;;;2.80;;
57249;SDS011;43102;52.014;-0.680;2023-03-19T01:53:01;7.40;;;2.80;;
57249;SDS011;43102;52.014;-0.680;2023-03-19T01:54:05;7.40;;;2.80;;
57249;SDS011;43102;52.014;-0.680;2023-03-19T01:55:03;7.40;;;2.80;;
57249;SDS011;43102;52.014;-0.680;2023-03-19T01:56:10;7.40;;;2.80;;
57249;SDS011;43102;52.014;-0.680;2023-03-19T01:57:05;4.80;;;2.40;;
57249;SDS011;43102;52.014;-0.680;2023-03-19T01:58:01;4.80;;;2.40;;
57249;SDS011;43102;52.014;-0.680;2023-03-19T01:59:08;4.80;;;2.40;;
57249;SDS011;43102;52.014;-0.680;2023-03-19T02:00:04;4.80;;;2.40;;
57249;SDS011;43102;52.014;-0.680;2023-03-19T02:01:02;4.80;;;2.40;;
57249;SDS011;43102;52.014;-0.680;2023-03-19T02:03:01;4.80;;;2.40;;
57249;SDS011;43102;52.014;-0.680;2023-03-19T02:04:00;4.80;;;2.40;;
57249;SDS011;43102;52.014;-0.680;2023-03-19T02:05:06;4.80;;;2.40;;
57249;SDS011;43102;52.014;-0.680;2023-03-19T02:06:00;4.80;;;2.40;;
57249;SDS011;43102;52.014;-0.680;2023-03-19T02:07:02;4.80;;;2.40;;
57249;SDS011;43102;52.014;-0.680;2023-03-19T02:08:04;4.80;;;2.40;;
57249;SDS011;43102;52.014;-0.680;2023-03-19T02:09:01;4.80;;;2.40;;
57249;SDS011;43102;52.014;-0.680;2023-03-19T02:10:03;4.80;;;2.40;;
57249;SDS011;43102;52.014;-0.680;2023-03-19T02:11:01;4.80;;;2.40;;
57249;SDS011;43102;52.014;-0.680;2023-03-19T02:12:01;4.80;;;2.40;;
57249;SDS011;43102;52.014;-0.680;2023-03-19T02:13:00;4.80;;;2.40;;
57249;SDS011;43102;52.014;-0.680;2023-03-19T02:14:01;4.80;;;2.40;;
57249;SDS011;43102;52.014;-0.680;2023-03-19T02:15:00;4.80;;;2.40;;
57249;SDS011;43102;52.014;-0.680;2023-03-19T02:16:01;4.80;;;2.40;;
57249;SDS011;43102;52.014;-0.680;2023-03-19T02:17:00;4.80;;;2.40;;
57249;SDS011;43102;52.014;-0.680;2023-03-19T02:18:00;4.80;;;2.40;;
57249;SDS011;43102;52.014;-0.680;2023-03-19T02:19:00;4.80;;;2.40;;
57249;SDS011;43102;52.014;-0.680;2023-03-19T02:21:17;4.80;;;2.40;;
57249;SDS011;43102;52.014;-0.680;2023-03-19T02:22:01;4.80;;;2.40;;
57249;SDS011;43102;52.014;-0.680;2023-03-19T02:24:07;4.80;;;2.40;;
57249;SDS011;43102;52.014;-0.680;2023-03-19T02:25:05;4.80;;;2.40;;
57249;SDS011;43102;52.014;-0.680;2023-03-19T02:26:06;4.80;;;2.40;;
57249;SDS011;43102;52.014;-0.680;2023-03-19T02:27:01;6.50;;;3.60;;
57249;SDS011;43102;52.014;-0.680;2023-03-19T02:28:01;6.50;;;3.60;;
57249;SDS011;43102;52.014;-0.680;2023-03-19T02:29:00;6.50;;;3.60;;
57249;SDS011;43102;52.014;-0.680;2023-03-19T02:30:27;6.50;;;3.60;;
57249;SDS011;43102;52.014;-0.680;2023-03-19T02:31:00;6.50;;;3.60;;
57249;SDS011;43102;52.014;-0.680;2023-03-19T02:32:02;6.50;;;3.60;;
57249;SDS011;43102;52.014;-0.680;2023-03-19T02:33:00;6.50;;;3.60;;
57249;SDS011;43102;52.014;-0.680;2023-03-19T02:34:05;6.50;;;3.60;;
57249;SDS011;43102;52.014;-0.680;2023-03-19T02:35:00;6.50;;;3.60;;
57249;SDS011;43102;52.014;-0.680;2023-03-19T02:36:01;6.50;;;3.60;;
57249;SDS011;43102;52.014;-0.680;2023-03-19T02:37:05;6.50;;;3.60;;
57249;SDS011;43102;52.014;-0.680;2023-03-19T02:38:02;6.50;;;3.60;;
57249;SDS011;43102;52.014;-0.680;2023-03-19T02:39:02;6.50;;;3.60;;
57249;SDS011;43102;52.014;-0.680;2023-03-19T02:40:04;6.50;;;3.60;;
57249;SDS011;43102;52.014;-0.680;2023-03-19T02:41:03;6.50;;;3.60;;
57249;SDS011;43102;52.014;-0.680;2023-03-19T02:42:01;6.50;;;3.60;;
57249;SDS011;43102;52.014;-0.680;2023-03-19T02:43:00;6.50;;;3.60;;
57249;SDS011;43102;52.014;-0.680;2023-03-19T02:44:02;6.50;;;3.60;;
57249;SDS011;43102;52.014;-0.680;2023-03-19T02:45:00;6.50;;;3.60;;
57249;SDS011;43102;52.014;-0.680;2023-03-19T02:46:01;6.50;;;3.60;;
57249;SDS011;43102;52.014;-0.680;2023-03-19T02:47:00;6.50;;;3.60;;
57249;SDS011;43102;52.014;-0.680;2023-03-19T02:48:01;6.50;;;3.60;;
57249;SDS011;43102;52.014;-0.680;2023-03-19T02:49:00;6.50;;;3.60;;
57249;SDS011;43102;52.014;-0.680;2023-03-19T02:50:01;6.50;;;3.60;;
57249;SDS011;43102;52.014;-0.680;2023-03-19T02:51:00;6.50;;;3.60;;
57249;SDS011;43102;52.014;-0.680;2023-03-19T02:52:01;6.50;;;3.60;;
57249;SDS011;43102;52.014;-0.680;2023-03-19T02:53:00;6.50;;;3.60;;
57249;SDS011;43102;52.014;-0.680;2023-03-19T02:54:00;6.50;;;3.60;;
57249;SDS011;43102;52.014;-0.680;2023-03-19T02:55:00;6.50;;;3.60;;
57249;SDS011;43102;52.014;-0.680;2023-03-19T02:56:00;6.50;;;3.60;;
57249;SDS011;43102;52.014;-0.680;2023-03-19T02:57:00;10.80;;;3.90;;
57249;SDS011;43102;52.014;-0.680;2023-03-19T02:58:00;10.80;;;3.90;;
57249;SDS011;43102;52.014;-0.680;2023-03-19T02:59:01;10.80;;;3.90;;
57249;SDS011;43102;52.014;-0.680;2023-03-19T03:00:01;10.80;;;3.90;;
57249;SDS011;43102;52.014;-0.680;2023-03-19T03:01:00;10.80;;;3.90;;
57249;SDS011;43102;52.014;-0.680;2023-03-19T03:02:00;10.80;;;3.90;;
57249;SDS011;43102;52.014;-0.680;2023-03-19T03:03:01;10.80;;;3.90;;
57249;SDS011;43102;52.014;-0.680;2023-03-19T03:04:00;10.80;;;3.90;;
57249;SDS011;43102;52.014;-0.680;2023-03-19T03:05:00;10.80;;;3.90;;
57249;SDS011;43102;52.014;-0.680;2023-03-19T03:06:00;10.80;;;3.90;;
57249;SDS011;43102;52.014;-0.680;2023-03-19T03:07:01;10.80;;;3.90;;
57249;SDS011;43102;52.014;-0.680;2023-03-19T03:08:02;10.80;;;3.90;;
57249;SDS011;43102;52.014;-0.680;2023-03-19T03:09:00;10.80;;;3.90;;
57249;SDS011;43102;52.014;-0.680;2023-03-19T03:10:01;10.80;;;3.90;;
57249;SDS011;43102;52.014;-0.680;2023-03-19T03:11:00;10.80;;;3.90;;
57249;SDS011;43102;52.014;-0.680;2023-03-19T03:12:01;10.80;;;3.90;;
57249;SDS011;43102;52.014;-0.680;2023-03-19T03:13:01;10.80;;;3.90;;
57249;SDS011;43102;52.014;-0.680;2023-03-19T03:14:01;10.80;;;3.90;;
57249;SDS011;43102;52.014;-0.680;2023-03-19T03:15:01;10.80;;;3.90;;
57249;SDS011;43102;52.014;-0.680;2023-03-19T03:16:00;10.80;;;3.90;;
57249;SDS011;43102;52.014;-0.680;2023-03-19T03:17:01;10.80;;;3.90;;
57249;SDS011;43102;52.014;-0.680;2023-03-19T03:18:00;10.80;;;3.90;;
57249;SDS011;43102;52.014;-0.680;2023-03-19T03:19:01;10.80;;;3.90;;
57249;SDS011;43102;52.014;-0.680;2023-03-19T03:20:00;10.80;;;3.90;;
57249;SDS011;43102;52.014;-0.680;2023-03-19T03:21:00;10.80;;;3.90;;
57249;SDS011;43102;52.014;-0.680;2023-03-19T03:22:00;10.80;;;3.90;;
57249;SDS011;43102;52.014;-0.680;2023-03-19T03:23:01;10.80;;;3.90;;
57249;SDS011;43102;52.014;-0.680;2023-03-19T03:24:00;10.80;;;3.90;;
57249;SDS011;43102;52.014;-0.680;2023-03-19T03:25:00;10.80;;;3.90;;
57249;SDS011;43102;52.014;-0.680;2023-03-19T03:26:00;10.80;;;3.90;;
57249;SDS011;43102;52.014;-0.680;2023-03-19T03:27:00;5.50;;;3.30;;
57249;SDS011;43102;52.014;-0.680;2023-03-19T03:28:00;5.50;;;3.30;;
57249;SDS011;43102;52.014;-0.680;2023-03-19T03:29:00;5.50;;;3.30;;
57249;SDS011;43102;52.014;-0.680;2023-03-19T03:30:00;5.50;;;3.30;;
57249;SDS011;43102;52.014;-0.680;2023-03-19T03:31:01;5.50;;;3.30;;
57249;SDS011;43102;52.014;-0.680;2023-03-19T03:32:00;5.50;;;3.30;;
57249;SDS011;43102;52.014;-0.680;2023-03-19T03:33:01;5.50;;;3.30;;
57249;SDS011;43102;52.014;-0.680;2023-03-19T03:34:01;5.50;;;3.30;;
57249;SDS011;43102;52.014;-0.680;2023-03-19T03:35:00;5.50;;;3.30;;
57249;SDS011;43102;52.014;-0.680;2023-03-19T03:36:01;5.50;;;3.30;;
57249;SDS011;43102;52.014;-0.680;2023-03-19T03:37:00;5.50;;;3.30;;
57249;SDS011;43102;52.014;-0.680;2023-03-19T03:38:02;5.50;;;3.30;;
57249;SDS011;43102;52.014;-0.680;2023-03-19T03:39:00;5.50;;;3.30;;
57249;SDS011;43102;52.014;-0.680;2023-03-19T03:40:07;5.50;;;3.30;;
57249;SDS011;43102;52.014;-0.680;2023-03-19T03:41:00;5.50;;;3.30;;
57249;SDS011;43102;52.014;-0.680;2023-03-19T03:42:00;5.50;;;3.30;;
57249;SDS011;43102;52.014;-0.680;2023-03-19T03:43:01;5.50;;;3.30;;
57249;SDS011;43102;52.014;-0.680;2023-03-19T03:44:00;5.50;;;3.30;;
57249;SDS011;43102;52.014;-0.680;2023-03-19T03:45:00;5.50;;;3.30;;
57249;SDS011;43102;52.014;-0.680;2023-03-19T03:46:00;5.50;;;3.30;;
57249;SDS011;43102;52.014;-0.680;2023-03-19T03:47:00;5.50;;;3.30;;
57249;SDS011;43102;52.014;-0.680;2023-03-19T03:48:00;5.50;;;3.30;;
57249;SDS011;43102;52.014;-0.680;2023-03-19T03:49:00;5.50;;;3.30;;
57249;SDS011;43102;52.014;-0.680;2023-03-19T03:50:00;5.50;;;3.30;;
57249;SDS011;43102;52.014;-0.680;2023-03-19T03:51:02;5.50;;;3.30;;
57249;SDS011;43102;52.014;-0.680;2023-03-19T03:52:00;5.50;;;3.30;;
57249;SDS011;43102;52.014;-0.680;2023-03-19T03:53:00;5.50;;;3.30;;
57249;SDS011;43102;52.014;-0.680;2023-03-19T03:54:00;5.50;;;3.30;;
57249;SDS011;43102;52.014;-0.680;2023-03-19T03:55:00;5.50;;;3.30;;
57249;SDS011;43102;52.014;-0.680;2023-03-19T03:56:01;5.50;;;3.30;;
57249;SDS011;43102;52.014;-0.680;2023-03-19T03:57:03;7.20;;;2.80;;
57249;SDS011;43102;52.014;-0.680;2023-03-19T03:58:00;7.20;;;2.80;;
57249;SDS011;43102;52.014;-0.680;2023-03-19T03:59:00;7.20;;;2.80;;
57249;SDS011;43102;52.014;-0.680;2023-03-19T04:00:00;7.20;;;2.80;;
57249;SDS011;43102;52.014;-0.680;2023-03-19T04:01:00;7.20;;;2.80;;
57249;SDS011;43102;52.014;-0.680;2023-03-19T04:02:00;7.20;;;2.80;;
57249;SDS011;43102;52.014;-0.680;2023-03-19T04:03:01;7.20;;;2.80;;
57249;SDS011;43102;52.014;-0.680;2023-03-19T04:04:00;7.20;;;2.80;;
57249;SDS011;43102;52.014;-0.680;2023-03-19T04:05:00;7.20;;;2.80;;
57249;SDS011;43102;52.014;-0.680;2023-03-19T04:06:00;7.20;;;2.80;;
57249;SDS011;43102;52.014;-0.680;2023-03-19T04:07:01;7.20;;;2.80;;
57249;SDS011;43102;52.014;-0.680;2023-03-19T04:08:02;7.20;;;2.80;;
57249;SDS011;43102;52.014;-0.680;2023-03-19T04:09:01;7.20;;;2.80;;
57249;SDS011;43102;52.014;-0.680;2023-03-19T04:10:00;7.20;;;2.80;;
57249;SDS011;43102;52.014;-0.680;2023-03-19T04:11:05;7.20;;;2.80;;
57249;SDS011;43102;52.014;-0.680;2023-03-19T04:12:01;7.20;;;2.80;;
57249;SDS011;43102;52.014;-0.680;2023-03-19T04:13:00;7.20;;;2.80;;
57249;SDS011;43102;52.014;-0.680;2023-03-19T04:14:02;7.20;;;2.80;;
57249;SDS011;43102;52.014;-0.680;2023-03-19T04:15:00;7.20;;;2.80;;
57249;SDS011;43102;52.014;-0.680;2023-03-19T04:16:00;7.20;;;2.80;;
57249;SDS011;43102;52.014;-0.680;2023-03-19T04:17:00;7.20;;;2.80;;
57249;SDS011;43102;52.014;-0.680;2023-03-19T04:18:00;7.20;;;2.80;;
57249;SDS011;43102;52.014;-0.680;2023-03-19T04:19:01;7.20;;;2.80;;
57249;SDS011;43102;52.014;-0.680;2023-03-19T04:20:01;7.20;;;2.80;;
57249;SDS011;43102;52.014;-0.680;2023-03-19T04:21:01;7.20;;;2.80;;
57249;SDS011;43102;52.014;-0.680;2023-03-19T04:22:02;7.20;;;2.80;;
57249;SDS011;43102;52.014;-0.680;2023-03-19T04:23:01;7.20;;;2.80;;
57249;SDS011;43102;52.014;-0.680;2023-03-19T04:24:01;7.20;;;2.80;;
57249;SDS011;43102;52.014;-0.680;2023-03-19T04:25:01;7.20;;;2.80;;
57249;SDS011;43102;52.014;-0.680;2023-03-19T04:26:02;7.20;;;2.80;;
57249;SDS011;43102;52.014;-0.680;2023-03-19T04:27:00;5.00;;;2.40;;
57249;SDS011;43102;52.014;-0.680;2023-03-19T04:28:00;5.00;;;2.40;;
57249;SDS011;43102;52.014;-0.680;2023-03-19T04:29:01;5.00;;;2.40;;
57249;SDS011;43102;52.014;-0.680;2023-03-19T04:30:01;5.00;;;2.40;;
57249;SDS011;43102;52.014;-0.680;2023-03-19T04:31:02;5.00;;;2.40;;
57249;SDS011;43102;52.014;-0.680;2023-03-19T04:32:01;5.00;;;2.40;;
57249;SDS011;43102;52.014;-0.680;2023-03-19T04:33:00;5.00;;;2.40;;
57249;SDS011;43102;52.014;-0.680;2023-03-19T04:34:00;5.00;;;2.40;;
57249;SDS011;43102;52.014;-0.680;2023-03-19T04:35:00;5.00;;;2.40;;
57249;SDS011;43102;52.014;-0.680;2023-03-19T04:36:02;5.00;;;2.40;;
57249;SDS011;43102;52.014;-0.680;2023-03-19T04:37:01;5.00;;;2.40;;
57249;SDS011;43102;52.014;-0.680;2023-03-19T04:38:00;5.00;;;2.40;;
57249;SDS011;43102;52.014;-0.680;2023-03-19T04:39:00;5.00;;;2.40;;
57249;SDS011;43102;52.014;-0.680;2023-03-19T04:40:01;5.00;;;2.40;;
57249;SDS011;43102;52.014;-0.680;2023-03-19T04:41:01;5.00;;;2.40;;
57249;SDS011;43102;52.014;-0.680;2023-03-19T04:42:00;5.00;;;2.40;;
57249;SDS011;43102;52.014;-0.680;2023-03-19T04:43:01;5.00;;;2.40;;
57249;SDS011;43102;52.014;-0.680;2023-03-19T04:44:01;5.00;;;2.40;;
57249;SDS011;43102;52.014;-0.680;2023-03-19T04:45:00;5.00;;;2.40;;
57249;SDS011;43102;52.014;-0.680;2023-03-19T04:46:01;5.00;;;2.40;;
57249;SDS011;43102;52.014;-0.680;2023-03-19T04:47:00;5.00;;;2.40;;
57249;SDS011;43102;52.014;-0.680;2023-03-19T04:48:01;5.00;;;2.40;;
57249;SDS011;43102;52.014;-0.680;2023-03-19T04:49:00;5.00;;;2.40;;
57249;SDS011;43102;52.014;-0.680;2023-03-19T04:50:01;5.00;;;2.40;;
57249;SDS011;43102;52.014;-0.680;2023-03-19T04:51:02;5.00;;;2.40;;
57249;SDS011;43102;52.014;-0.680;2023-03-19T04:52:00;5.00;;;2.40;;
57249;SDS011;43102;52.014;-0.680;2023-03-19T04:53:01;5.00;;;2.40;;
57249;SDS011;43102;52.014;-0.680;2023-03-19T04:54:00;5.00;;;2.40;;
57249;SDS011;43102;52.014;-0.680;2023-03-19T04:55:00;5.00;;;2.40;;
57249;SDS011;43102;52.014;-0.680;2023-03-19T04:56:01;5.00;;;2.40;;
57249;SDS011;43102;52.014;-0.680;2023-03-19T04:57:01;5.50;;;2.80;;
57249;SDS011;43102;52.014;-0.680;2023-03-19T04:58:00;5.50;;;2.80;;
57249;SDS011;43102;52.014;-0.680;2023-03-19T04:59:00;5.50;;;2.80;;
57249;SDS011;43102;52.014;-0.680;2023-03-19T05:00:00;5.50;;;2.80;;
57249;SDS011;43102;52.014;-0.680;2023-03-19T05:01:01;5.50;;;2.80;;
57249;SDS011;43102;52.014;-0.680;2023-03-19T05:02:00;5.50;;;2.80;;
57249;SDS011;43102;52.014;-0.680;2023-03-19T05:03:00;5.50;;;2.80;;
57249;SDS011;43102;52.014;-0.680;2023-03-19T05:04:01;5.50;;;2.80;;
57249;SDS011;43102;52.014;-0.680;2023-03-19T05:05:01;5.50;;;2.80;;
57249;SDS011;43102;52.014;-0.680;2023-03-19T05:06:00;5.50;;;2.80;;
57249;SDS011;43102;52.014;-0.680;2023-03-19T05:07:01;5.50;;;2.80;;
57249;SDS011;43102;52.014;-0.680;2023-03-19T05:08:00;5.50;;;2.80;;
57249;SDS011;43102;52.014;-0.680;2023-03-19T05:09:01;5.50;;;2.80;;
57249;SDS011;43102;52.014;-0.680;2023-03-19T05:10:01;5.50;;;2.80;;
57249;SDS011;43102;52.014;-0.680;2023-03-19T05:11:01;5.50;;;2.80;;
57249;SDS011;43102;52.014;-0.680;2023-03-19T05:12:00;5.50;;;2.80;;
57249;SDS011;43102;52.014;-0.680;2023-03-19T05:13:01;5.50;;;2.80;;
57249;SDS011;43102;52.014;-0.680;2023-03-19T05:14:00;5.50;;;2.80;;
57249;SDS011;43102;52.014;-0.680;2023-03-19T05:15:04;5.50;;;2.80;;
57249;SDS011;43102;52.014;-0.680;2023-03-19T05:16:01;5.50;;;2.80;;
57249;SDS011;43102;52.014;-0.680;2023-03-19T05:17:00;5.50;;;2.80;;
57249;SDS011;43102;52.014;-0.680;2023-03-19T05:18:00;5.50;;;2.80;;
57249;SDS011;43102;52.014;-0.680;2023-03-19T05:19:00;5.50;;;2.80;;
57249;SDS011;43102;52.014;-0.680;2023-03-19T05:20:01;5.50;;;2.80;;
57249;SDS011;43102;52.014;-0.680;2023-03-19T05:21:00;5.50;;;2.80;;
57249;SDS011;43102;52.014;-0.680;2023-03-19T05:22:00;5.50;;;2.80;;
57249;SDS011;43102;52.014;-0.680;2023-03-19T05:23:00;5.50;;;2.80;;
57249;SDS011;43102;52.014;-0.680;2023-03-19T05:24:00;5.50;;;2.80;;
57249;SDS011;43102;52.014;-0.680;2023-03-19T05:25:00;5.50;;;2.80;;
57249;SDS011;43102;52.014;-0.680;2023-03-19T05:26:00;5.50;;;2.80;;
57249;SDS011;43102;52.014;-0.680;2023-03-19T05:27:01;3.70;;;2.10;;
57249;SDS011;43102;52.014;-0.680;2023-03-19T05:28:01;3.70;;;2.10;;
57249;SDS011;43102;52.014;-0.680;2023-03-19T05:29:00;3.70;;;2.10;;
57249;SDS011;43102;52.014;-0.680;2023-03-19T05:30:00;3.70;;;2.10;;
57249;SDS011;43102;52.014;-0.680;2023-03-19T05:31:02;3.70;;;2.10;;
57249;SDS011;43102;52.014;-0.680;2023-03-19T05:32:02;3.70;;;2.10;;
57249;SDS011;43102;52.014;-0.680;2023-03-19T05:33:01;3.70;;;2.10;;
57249;SDS011;43102;52.014;-0.680;2023-03-19T05:34:00;3.70;;;2.10;;
57249;SDS011;43102;52.014;-0.680;2023-03-19T05:35:01;3.70;;;2.10;;
57249;SDS011;43102;52.014;-0.680;2023-03-19T05:36:00;3.70;;;2.10;;
57249;SDS011;43102;52.014;-0.680;2023-03-19T05:37:00;3.70;;;2.10;;
57249;SDS011;43102;52.014;-0.680;2023-03-19T05:38:01;3.70;;;2.10;;
57249;SDS011;43102;52.014;-0.680;2023-03-19T05:39:01;3.70;;;2.10;;
57249;SDS011;43102;52.014;-0.680;2023-03-19T05:40:00;3.70;;;2.10;;
57249;SDS011;43102;52.014;-0.680;2023-03-19T05:41:05;3.70;;;2.10;;
57249;SDS011;43102;52.014;-0.680;2023-03-19T05:42:00;3.70;;;2.10;;
57249;SDS011;43102;52.014;-0.680;2023-03-19T05:43:00;3.70;;;2.10;;
57249;SDS011;43102;52.014;-0.680;2023-03-19T05:44:00;3.70;;;2.10;;
57249;SDS011;43102;52.014;-0.680;2023-03-19T05:45:01;3.70;;;2.10;;
57249;SDS011;43102;52.014;-0.680;2023-03-19T05:46:00;3.70;;;2.10;;
57249;SDS011;43102;52.014;-0.680;2023-03-19T05:47:00;3.70;;;2.10;;
57249;SDS011;43102;52.014;-0.680;2023-03-19T05:48:02;3.70;;;2.10;;
57249;SDS011;43102;52.014;-0.680;2023-03-19T05:49:00;3.70;;;2.10;;
57249;SDS011;43102;52.014;-0.680;2023-03-19T05:50:00;3.70;;;2.10;;
57249;SDS011;43102;52.014;-0.680;2023-03-19T05:51:00;3.70;;;2.10;;
57249;SDS011;43102;52.014;-0.680;2023-03-19T05:52:00;3.70;;;2.10;;
57249;SDS011;43102;52.014;-0.680;2023-03-19T05:53:00;3.70;;;2.10;;
57249;SDS011;43102;52.014;-0.680;2023-03-19T05:54:00;3.70;;;2.10;;
57249;SDS011;43102;52.014;-0.680;2023-03-19T05:55:00;3.70;;;2.10;;
57249;SDS011;43102;52.014;-0.680;2023-03-19T05:56:00;3.70;;;2.10;;
57249;SDS011;43102;52.014;-0.680;2023-03-19T05:57:01;4.50;;;2.50;;
57249;SDS011;43102;52.014;-0.680;2023-03-19T05:58:00;4.50;;;2.50;;
57249;SDS011;43102;52.014;-0.680;2023-03-19T05:59:00;4.50;;;2.50;;